sensor_id;sensor_type;location;lat;lon;timestamp;P1;durP1;ratioP1;P2;durP2;ratioP2
5684;SDS011;2865;53.114;9.130;2022-08-01T00:02:19;3.10;;;2.90;;
5684;SDS011;2865;53.114;9.130;2022-08-01T00:04:45;2.67;;;2.47;;
5684;SDS011;2865;53.114;9.130;2022-08-01T00:07:10;3.50;;;3.20;;
5684;SDS011;2865;53.114;9.130;2022-08-01T00:09:35;2.93;;;2.73;;
5684;SDS011;2865;53.114;9.130;2022-08-01T00:12:01;3.17;;;2.97;;
5684;SDS011;2865;53.114;9.130;2022-08-01T00:14:26;4.40;;;3.27;;
5684;SDS011;2865;53.114;9.130;2022-08-01T00:16:52;3.23;;;3.03;;
5684;SDS011;2865;53.114;9.130;2022-08-01T00:19:17;3.73;;;3.33;;
5684;SDS011;2865;53.114;9.130;2022-08-01T00:21:42;4.80;;;3.20;;
5684;SDS011;2865;53.114;9.130;2022-08-01T00:24:08;4.53;;;4.13;;
5684;SDS011;2865;53.114;9.130;2022-08-01T00:26:33;5.37;;;4.30;;
5684;SDS011;2865;53.114;9.130;2022-08-01T00:28:59;5.03;;;4.27;;
5684;SDS011;2865;53.114;9.130;2022-08-01T00:31:24;6.00;;;4.00;;
5684;SDS011;2865;53.114;9.130;2022-08-01T00:33:49;5.27;;;4.87;;
5684;SDS011;2865;53.114;9.130;2022-08-01T00:36:15;5.50;;;5.00;;
5684;SDS011;2865;53.114;9.130;2022-08-01T00:38:40;5.90;;;4.67;;
5684;SDS011;2865;53.114;9.130;2022-08-01T00:41:05;5.47;;;4.97;;
5684;SDS011;2865;53.114;9.130;2022-08-01T00:43:31;4.40;;;4.00;;
5684;SDS011;2865;53.114;9.130;2022-08-01T00:45:56;6.40;;;4.80;;
5684;SDS011;2865;53.114;9.130;2022-08-01T00:48:21;4.60;;;4.30;;
5684;SDS011;2865;53.114;9.130;2022-08-01T00:50:47;5.57;;;5.07;;
5684;SDS011;2865;53.114;9.130;2022-08-01T00:53:12;5.30;;;4.80;;
5684;SDS011;2865;53.114;9.130;2022-08-01T00:55:37;7.97;;;4.87;;
5684;SDS011;2865;53.114;9.130;2022-08-01T00:58:03;4.87;;;4.40;;
5684;SDS011;2865;53.114;9.130;2022-08-01T01:00:28;5.73;;;5.23;;
5684;SDS011;2865;53.114;9.130;2022-08-01T01:02:53;6.20;;;5.60;;
5684;SDS011;2865;53.114;9.130;2022-08-01T01:05:19;9.93;;;5.77;;
5684;SDS011;2865;53.114;9.130;2022-08-01T01:07:48;7.70;;;6.20;;
5684;SDS011;2865;53.114;9.130;2022-08-01T01:10:28;11.03;;;6.17;;
5684;SDS011;2865;53.114;9.130;2022-08-01T01:12:57;7.43;;;6.37;;
5684;SDS011;2865;53.114;9.130;2022-08-01T01:15:26;6.47;;;5.80;;
5684;SDS011;2865;53.114;9.130;2022-08-01T01:18:00;6.10;;;5.50;;
5684;SDS011;2865;53.114;9.130;2022-08-01T01:20:37;7.60;;;6.43;;
5684;SDS011;2865;53.114;9.130;2022-08-01T01:22:55;9.40;;;6.60;;
5684;SDS011;2865;53.114;9.130;2022-08-01T01:25:40;6.60;;;6.00;;
5684;SDS011;2865;53.114;9.130;2022-08-01T01:28:15;7.67;;;6.80;;
5684;SDS011;2865;53.114;9.130;2022-08-01T01:30:35;7.40;;;6.07;;
5684;SDS011;2865;53.114;9.130;2022-08-01T01:33:02;8.33;;;6.70;;
5684;SDS011;2865;53.114;9.130;2022-08-01T01:35:26;7.27;;;6.50;;
5684;SDS011;2865;53.114;9.130;2022-08-01T01:37:54;9.13;;;6.90;;
5684;SDS011;2865;53.114;9.130;2022-08-01T01:40:16;7.20;;;6.50;;
5684;SDS011;2865;53.114;9.130;2022-08-01T01:42:41;9.27;;;8.13;;
5684;SDS011;2865;53.114;9.130;2022-08-01T01:45:07;10.60;;;7.30;;
5684;SDS011;2865;53.114;9.130;2022-08-01T01:47:32;7.80;;;7.03;;
5684;SDS011;2865;53.114;9.130;2022-08-01T01:49:58;7.70;;;6.90;;
5684;SDS011;2865;53.114;9.130;2022-08-01T01:52:23;8.67;;;7.77;;
5684;SDS011;2865;53.114;9.130;2022-08-01T01:54:49;8.37;;;7.57;;
5684;SDS011;2865;53.114;9.130;2022-08-01T01:57:14;8.80;;;7.37;;
5684;SDS011;2865;53.114;9.130;2022-08-01T01:59:39;9.10;;;7.87;;
5684;SDS011;2865;53.114;9.130;2022-08-01T02:02:05;8.37;;;7.00;;
5684;SDS011;2865;53.114;9.130;2022-08-01T02:04:30;9.60;;;8.60;;
5684;SDS011;2865;53.114;9.130;2022-08-01T02:06:55;8.87;;;7.70;;
5684;SDS011;2865;53.114;9.130;2022-08-01T02:09:21;10.53;;;8.87;;
5684;SDS011;2865;53.114;9.130;2022-08-01T02:11:47;10.17;;;8.10;;
5684;SDS011;2865;53.114;9.130;2022-08-01T02:14:11;10.07;;;7.97;;
5684;SDS011;2865;53.114;9.130;2022-08-01T02:16:37;13.13;;;7.53;;
5684;SDS011;2865;53.114;9.130;2022-08-01T02:19:02;12.00;;;7.17;;
5684;SDS011;2865;53.114;9.130;2022-08-01T02:21:29;7.13;;;5.73;;
5684;SDS011;2865;53.114;9.130;2022-08-01T02:23:55;6.90;;;6.17;;
5684;SDS011;2865;53.114;9.130;2022-08-01T02:26:20;6.70;;;5.63;;
5684;SDS011;2865;53.114;9.130;2022-08-01T02:28:47;6.43;;;5.83;;
5684;SDS011;2865;53.114;9.130;2022-08-01T02:31:17;8.30;;;6.33;;
5684;SDS011;2865;53.114;9.130;2022-08-01T02:33:41;7.00;;;6.30;;
5684;SDS011;2865;53.114;9.130;2022-08-01T02:36:06;8.53;;;7.03;;
5684;SDS011;2865;53.114;9.130;2022-08-01T02:38:32;10.77;;;8.40;;
5684;SDS011;2865;53.114;9.130;2022-08-01T02:40:57;9.20;;;7.03;;
5684;SDS011;2865;53.114;9.130;2022-08-01T02:43:22;7.80;;;7.00;;
5684;SDS011;2865;53.114;9.130;2022-08-01T02:45:48;7.97;;;7.20;;
5684;SDS011;2865;53.114;9.130;2022-08-01T02:48:13;9.20;;;8.23;;
5684;SDS011;2865;53.114;9.130;2022-08-01T02:50:38;9.50;;;8.60;;
5684;SDS011;2865;53.114;9.130;2022-08-01T02:53:03;10.07;;;9.07;;
5684;SDS011;2865;53.114;9.130;2022-08-01T02:55:28;12.40;;;7.53;;
5684;SDS011;2865;53.114;9.130;2022-08-01T02:57:54;10.93;;;8.87;;
5684;SDS011;2865;53.114;9.130;2022-08-01T03:00:19;9.37;;;8.47;;
5684;SDS011;2865;53.114;9.130;2022-08-01T03:02:44;12.40;;;9.43;;
5684;SDS011;2865;53.114;9.130;2022-08-01T03:05:10;10.10;;;8.87;;
5684;SDS011;2865;53.114;9.130;2022-08-01T03:07:35;13.43;;;11.00;;
5684;SDS011;2865;53.114;9.130;2022-08-01T03:10:00;10.83;;;9.30;;
5684;SDS011;2865;53.114;9.130;2022-08-01T03:12:27;16.03;;;11.60;;
5684;SDS011;2865;53.114;9.130;2022-08-01T03:14:51;11.60;;;10.10;;
5684;SDS011;2865;53.114;9.130;2022-08-01T03:17:16;13.27;;;9.63;;
5684;SDS011;2865;53.114;9.130;2022-08-01T03:19:42;10.67;;;9.40;;
5684;SDS011;2865;53.114;9.130;2022-08-01T03:22:08;12.87;;;9.47;;
5684;SDS011;2865;53.114;9.130;2022-08-01T03:24:32;12.90;;;9.60;;
5684;SDS011;2865;53.114;9.130;2022-08-01T03:26:58;9.47;;;7.83;;
5684;SDS011;2865;53.114;9.130;2022-08-01T03:29:25;10.97;;;8.30;;
5684;SDS011;2865;53.114;9.130;2022-08-01T03:31:48;11.50;;;8.80;;
5684;SDS011;2865;53.114;9.130;2022-08-01T03:34:14;12.47;;;9.03;;
5684;SDS011;2865;53.114;9.130;2022-08-01T03:36:46;8.83;;;8.00;;
5684;SDS011;2865;53.114;9.130;2022-08-01T03:39:12;10.87;;;8.03;;
5684;SDS011;2865;53.114;9.130;2022-08-01T03:41:39;11.03;;;8.30;;
5684;SDS011;2865;53.114;9.130;2022-08-01T03:44:05;8.00;;;6.80;;
5684;SDS011;2865;53.114;9.130;2022-08-01T03:46:31;8.13;;;7.33;;
5684;SDS011;2865;53.114;9.130;2022-08-01T03:48:55;11.67;;;7.10;;
5684;SDS011;2865;53.114;9.130;2022-08-01T03:51:20;8.03;;;7.27;;
5684;SDS011;2865;53.114;9.130;2022-08-01T03:53:45;10.03;;;7.03;;
5684;SDS011;2865;53.114;9.130;2022-08-01T03:56:11;11.10;;;7.57;;
5684;SDS011;2865;53.114;9.130;2022-08-01T03:58:38;9.20;;;6.83;;
5684;SDS011;2865;53.114;9.130;2022-08-01T04:01:02;7.40;;;6.73;;
5684;SDS011;2865;53.114;9.130;2022-08-01T04:03:27;8.33;;;6.13;;
5684;SDS011;2865;53.114;9.130;2022-08-01T04:05:52;7.67;;;6.43;;
5684;SDS011;2865;53.114;9.130;2022-08-01T04:08:18;6.60;;;6.00;;
5684;SDS011;2865;53.114;9.130;2022-08-01T04:10:43;7.63;;;6.73;;
5684;SDS011;2865;53.114;9.130;2022-08-01T04:13:08;7.53;;;6.80;;
5684;SDS011;2865;53.114;9.130;2022-08-01T04:15:34;8.70;;;6.93;;
5684;SDS011;2865;53.114;9.130;2022-08-01T04:17:59;6.40;;;5.60;;
5684;SDS011;2865;53.114;9.130;2022-08-01T04:20:24;6.70;;;6.00;;
5684;SDS011;2865;53.114;9.130;2022-08-01T04:22:50;7.20;;;5.57;;
5684;SDS011;2865;53.114;9.130;2022-08-01T04:25:16;6.03;;;5.23;;
5684;SDS011;2865;53.114;9.130;2022-08-01T04:27:41;8.33;;;6.30;;
5684;SDS011;2865;53.114;9.130;2022-08-01T04:30:06;6.83;;;5.80;;
5684;SDS011;2865;53.114;9.130;2022-08-01T04:32:34;6.40;;;5.50;;
5684;SDS011;2865;53.114;9.130;2022-08-01T04:34:59;6.17;;;5.67;;
5684;SDS011;2865;53.114;9.130;2022-08-01T04:37:24;6.63;;;5.40;;
5684;SDS011;2865;53.114;9.130;2022-08-01T04:39:49;8.20;;;6.77;;
5684;SDS011;2865;53.114;9.130;2022-08-01T04:42:14;5.77;;;5.27;;
5684;SDS011;2865;53.114;9.130;2022-08-01T04:44:40;15.27;;;5.50;;
5684;SDS011;2865;53.114;9.130;2022-08-01T04:47:05;9.73;;;6.13;;
5684;SDS011;2865;53.114;9.130;2022-08-01T04:49:31;9.33;;;5.53;;
5684;SDS011;2865;53.114;9.130;2022-08-01T04:51:56;6.60;;;5.80;;
5684;SDS011;2865;53.114;9.130;2022-08-01T04:54:23;5.77;;;4.93;;
5684;SDS011;2865;53.114;9.130;2022-08-01T04:56:49;7.13;;;5.23;;
5684;SDS011;2865;53.114;9.130;2022-08-01T04:59:15;5.63;;;5.03;;
5684;SDS011;2865;53.114;9.130;2022-08-01T05:01:48;7.80;;;4.93;;
5684;SDS011;2865;53.114;9.130;2022-08-01T05:04:12;7.37;;;4.90;;
5684;SDS011;2865;53.114;9.130;2022-08-01T05:06:38;4.67;;;4.20;;
5684;SDS011;2865;53.114;9.130;2022-08-01T05:09:03;8.83;;;4.83;;
5684;SDS011;2865;53.114;9.130;2022-08-01T05:11:28;7.07;;;5.07;;
5684;SDS011;2865;53.114;9.130;2022-08-01T05:13:54;6.30;;;4.33;;
5684;SDS011;2865;53.114;9.130;2022-08-01T05:16:19;4.50;;;3.80;;
5684;SDS011;2865;53.114;9.130;2022-08-01T05:18:44;6.63;;;4.27;;
5684;SDS011;2865;53.114;9.130;2022-08-01T05:21:10;5.80;;;3.00;;
5684;SDS011;2865;53.114;9.130;2022-08-01T05:23:35;5.73;;;3.67;;
5684;SDS011;2865;53.114;9.130;2022-08-01T05:26:00;3.33;;;3.07;;
5684;SDS011;2865;53.114;9.130;2022-08-01T05:28:26;4.93;;;2.70;;
5684;SDS011;2865;53.114;9.130;2022-08-01T05:30:51;3.10;;;2.70;;
5684;SDS011;2865;53.114;9.130;2022-08-01T05:33:16;2.60;;;2.30;;
5684;SDS011;2865;53.114;9.130;2022-08-01T05:35:42;2.63;;;2.40;;
5684;SDS011;2865;53.114;9.130;2022-08-01T05:38:07;2.63;;;2.33;;
5684;SDS011;2865;53.114;9.130;2022-08-01T05:40:33;3.47;;;2.47;;
5684;SDS011;2865;53.114;9.130;2022-08-01T05:42:58;2.60;;;2.17;;
5684;SDS011;2865;53.114;9.130;2022-08-01T05:45:23;5.33;;;2.53;;
5684;SDS011;2865;53.114;9.130;2022-08-01T05:47:49;4.50;;;2.03;;
5684;SDS011;2865;53.114;9.130;2022-08-01T05:50:14;3.23;;;1.80;;
5684;SDS011;2865;53.114;9.130;2022-08-01T05:52:40;6.43;;;2.10;;
5684;SDS011;2865;53.114;9.130;2022-08-01T05:55:05;4.43;;;2.13;;
5684;SDS011;2865;53.114;9.130;2022-08-01T05:57:31;6.93;;;2.40;;
5684;SDS011;2865;53.114;9.130;2022-08-01T05:59:57;2.60;;;1.90;;
5684;SDS011;2865;53.114;9.130;2022-08-01T06:02:22;6.97;;;2.50;;
5684;SDS011;2865;53.114;9.130;2022-08-01T06:04:47;5.40;;;1.73;;
5684;SDS011;2865;53.114;9.130;2022-08-01T06:07:13;2.37;;;1.70;;
5684;SDS011;2865;53.114;9.130;2022-08-01T06:09:38;3.57;;;1.97;;
5684;SDS011;2865;53.114;9.130;2022-08-01T06:12:04;4.77;;;3.00;;
5684;SDS011;2865;53.114;9.130;2022-08-01T06:14:29;5.77;;;2.80;;
5684;SDS011;2865;53.114;9.130;2022-08-01T06:16:55;9.33;;;2.87;;
5684;SDS011;2865;53.114;9.130;2022-08-01T06:19:20;3.67;;;2.13;;
5684;SDS011;2865;53.114;9.130;2022-08-01T06:21:45;4.87;;;2.77;;
5684;SDS011;2865;53.114;9.130;2022-08-01T06:24:11;4.87;;;2.37;;
5684;SDS011;2865;53.114;9.130;2022-08-01T06:26:36;6.00;;;2.60;;
5684;SDS011;2865;53.114;9.130;2022-08-01T06:29:01;6.60;;;2.37;;
5684;SDS011;2865;53.114;9.130;2022-08-01T06:31:27;8.30;;;3.03;;
5684;SDS011;2865;53.114;9.130;2022-08-01T06:33:52;10.73;;;3.37;;
5684;SDS011;2865;53.114;9.130;2022-08-01T06:36:18;8.10;;;2.80;;
5684;SDS011;2865;53.114;9.130;2022-08-01T06:38:43;7.80;;;2.43;;
5684;SDS011;2865;53.114;9.130;2022-08-01T06:41:08;8.03;;;2.57;;
5684;SDS011;2865;53.114;9.130;2022-08-01T06:43:34;5.00;;;2.27;;
5684;SDS011;2865;53.114;9.130;2022-08-01T06:45:59;12.50;;;2.77;;
5684;SDS011;2865;53.114;9.130;2022-08-01T06:48:25;6.07;;;2.80;;
5684;SDS011;2865;53.114;9.130;2022-08-01T06:50:50;4.87;;;2.23;;
5684;SDS011;2865;53.114;9.130;2022-08-01T06:53:15;5.83;;;2.63;;
5684;SDS011;2865;53.114;9.130;2022-08-01T06:55:41;5.30;;;2.77;;
5684;SDS011;2865;53.114;9.130;2022-08-01T06:58:06;7.70;;;3.13;;
5684;SDS011;2865;53.114;9.130;2022-08-01T07:00:31;7.27;;;2.20;;
5684;SDS011;2865;53.114;9.130;2022-08-01T07:02:57;8.47;;;3.23;;
5684;SDS011;2865;53.114;9.130;2022-08-01T07:05:22;10.90;;;3.10;;
5684;SDS011;2865;53.114;9.130;2022-08-01T07:07:48;21.67;;;4.07;;
5684;SDS011;2865;53.114;9.130;2022-08-01T07:10:13;6.13;;;2.67;;
5684;SDS011;2865;53.114;9.130;2022-08-01T07:12:38;6.70;;;2.80;;
5684;SDS011;2865;53.114;9.130;2022-08-01T07:15:04;7.00;;;3.20;;
5684;SDS011;2865;53.114;9.130;2022-08-01T07:17:29;8.00;;;2.73;;
5684;SDS011;2865;53.114;9.130;2022-08-01T07:19:55;7.00;;;3.53;;
5684;SDS011;2865;53.114;9.130;2022-08-01T07:22:20;10.70;;;3.03;;
5684;SDS011;2865;53.114;9.130;2022-08-01T07:24:45;6.07;;;2.60;;
5684;SDS011;2865;53.114;9.130;2022-08-01T07:27:11;6.20;;;2.90;;
5684;SDS011;2865;53.114;9.130;2022-08-01T07:29:36;7.23;;;3.10;;
5684;SDS011;2865;53.114;9.130;2022-08-01T07:32:01;12.13;;;2.80;;
5684;SDS011;2865;53.114;9.130;2022-08-01T07:34:27;9.83;;;3.73;;
5684;SDS011;2865;53.114;9.130;2022-08-01T07:36:52;11.97;;;3.33;;
5684;SDS011;2865;53.114;9.130;2022-08-01T07:39:18;10.50;;;3.50;;
5684;SDS011;2865;53.114;9.130;2022-08-01T07:41:43;13.63;;;3.97;;
5684;SDS011;2865;53.114;9.130;2022-08-01T07:44:09;17.20;;;3.50;;
5684;SDS011;2865;53.114;9.130;2022-08-01T07:46:34;11.80;;;2.93;;
5684;SDS011;2865;53.114;9.130;2022-08-01T07:49:00;19.00;;;4.33;;
5684;SDS011;2865;53.114;9.130;2022-08-01T07:51:25;12.27;;;3.60;;
5684;SDS011;2865;53.114;9.130;2022-08-01T07:53:50;15.33;;;3.43;;
5684;SDS011;2865;53.114;9.130;2022-08-01T07:56:16;11.20;;;4.00;;
5684;SDS011;2865;53.114;9.130;2022-08-01T07:58:41;11.23;;;3.40;;
5684;SDS011;2865;53.114;9.130;2022-08-01T08:01:07;13.23;;;3.90;;
5684;SDS011;2865;53.114;9.130;2022-08-01T08:03:32;9.33;;;2.77;;
5684;SDS011;2865;53.114;9.130;2022-08-01T08:05:57;12.63;;;3.50;;
5684;SDS011;2865;53.114;9.130;2022-08-01T08:08:23;14.90;;;3.50;;
5684;SDS011;2865;53.114;9.130;2022-08-01T08:10:48;12.00;;;3.63;;
5684;SDS011;2865;53.114;9.130;2022-08-01T08:13:13;12.40;;;3.63;;
5684;SDS011;2865;53.114;9.130;2022-08-01T08:15:39;13.23;;;3.23;;
5684;SDS011;2865;53.114;9.130;2022-08-01T08:18:04;9.43;;;3.83;;
5684;SDS011;2865;53.114;9.130;2022-08-01T08:20:30;10.33;;;3.50;;
5684;SDS011;2865;53.114;9.130;2022-08-01T08:22:56;9.63;;;3.90;;
5684;SDS011;2865;53.114;9.130;2022-08-01T08:25:21;18.37;;;4.00;;
5684;SDS011;2865;53.114;9.130;2022-08-01T08:27:46;10.90;;;3.30;;
5684;SDS011;2865;53.114;9.130;2022-08-01T08:30:11;11.77;;;3.67;;
5684;SDS011;2865;53.114;9.130;2022-08-01T08:32:37;17.00;;;5.10;;
5684;SDS011;2865;53.114;9.130;2022-08-01T08:35:02;7.57;;;3.97;;
5684;SDS011;2865;53.114;9.130;2022-08-01T08:37:28;11.10;;;3.30;;
5684;SDS011;2865;53.114;9.130;2022-08-01T08:39:53;9.50;;;3.03;;
5684;SDS011;2865;53.114;9.130;2022-08-01T08:42:19;18.77;;;4.40;;
5684;SDS011;2865;53.114;9.130;2022-08-01T08:44:44;14.33;;;4.00;;
5684;SDS011;2865;53.114;9.130;2022-08-01T08:47:10;11.90;;;2.50;;
5684;SDS011;2865;53.114;9.130;2022-08-01T08:49:35;12.37;;;4.10;;
5684;SDS011;2865;53.114;9.130;2022-08-01T08:52:01;9.00;;;2.67;;
5684;SDS011;2865;53.114;9.130;2022-08-01T08:54:27;12.80;;;3.07;;
5684;SDS011;2865;53.114;9.130;2022-08-01T08:56:53;13.43;;;2.30;;
5684;SDS011;2865;53.114;9.130;2022-08-01T08:59:17;11.00;;;2.53;;
5684;SDS011;2865;53.114;9.130;2022-08-01T09:01:43;10.63;;;2.63;;
5684;SDS011;2865;53.114;9.130;2022-08-01T09:04:08;9.77;;;2.63;;
5684;SDS011;2865;53.114;9.130;2022-08-01T09:06:33;6.60;;;2.23;;
5684;SDS011;2865;53.114;9.130;2022-08-01T09:08:59;9.13;;;2.47;;
5684;SDS011;2865;53.114;9.130;2022-08-01T09:11:24;10.67;;;2.57;;
5684;SDS011;2865;53.114;9.130;2022-08-01T09:16:27;6.57;;;2.33;;
5684;SDS011;2865;53.114;9.130;2022-08-01T09:18:52;10.13;;;2.50;;
5684;SDS011;2865;53.114;9.130;2022-08-01T09:21:18;7.47;;;2.73;;
5684;SDS011;2865;53.114;9.130;2022-08-01T09:23:45;9.70;;;2.30;;
5684;SDS011;2865;53.114;9.130;2022-08-01T09:26:09;7.50;;;2.03;;
5684;SDS011;2865;53.114;9.130;2022-08-01T09:28:35;15.17;;;3.40;;
5684;SDS011;2865;53.114;9.130;2022-08-01T09:31:05;10.93;;;2.67;;
5684;SDS011;2865;53.114;9.130;2022-08-01T09:36:10;13.50;;;2.30;;
5684;SDS011;2865;53.114;9.130;2022-08-01T09:38:36;9.27;;;2.70;;
5684;SDS011;2865;53.114;9.130;2022-08-01T09:41:01;10.67;;;2.70;;
5684;SDS011;2865;53.114;9.130;2022-08-01T09:43:27;6.43;;;2.00;;
5684;SDS011;2865;53.114;9.130;2022-08-01T09:45:52;9.50;;;2.30;;
5684;SDS011;2865;53.114;9.130;2022-08-01T09:48:18;6.40;;;2.07;;
5684;SDS011;2865;53.114;9.130;2022-08-01T09:50:43;8.00;;;2.00;;
5684;SDS011;2865;53.114;9.130;2022-08-01T09:53:09;4.47;;;2.50;;
5684;SDS011;2865;53.114;9.130;2022-08-01T09:55:34;7.87;;;1.70;;
5684;SDS011;2865;53.114;9.130;2022-08-01T09:57:59;7.70;;;2.27;;
5684;SDS011;2865;53.114;9.130;2022-08-01T10:00:24;9.03;;;2.20;;
5684;SDS011;2865;53.114;9.130;2022-08-01T10:02:50;12.27;;;4.93;;
5684;SDS011;2865;53.114;9.130;2022-08-01T10:05:15;6.63;;;2.47;;
5684;SDS011;2865;53.114;9.130;2022-08-01T10:10:18;10.40;;;2.30;;
5684;SDS011;2865;53.114;9.130;2022-08-01T10:12:44;8.73;;;2.20;;
5684;SDS011;2865;53.114;9.130;2022-08-01T10:15:09;12.60;;;2.23;;
5684;SDS011;2865;53.114;9.130;2022-08-01T10:17:35;9.43;;;2.23;;
5684;SDS011;2865;53.114;9.130;2022-08-01T10:20:01;11.13;;;2.37;;
5684;SDS011;2865;53.114;9.130;2022-08-01T10:22:25;10.13;;;1.80;;
5684;SDS011;2865;53.114;9.130;2022-08-01T10:24:52;7.70;;;1.63;;
5684;SDS011;2865;53.114;9.130;2022-08-01T10:27:16;10.77;;;1.93;;
5684;SDS011;2865;53.114;9.130;2022-08-01T10:29:46;7.13;;;1.70;;
5684;SDS011;2865;53.114;9.130;2022-08-01T10:32:08;4.47;;;1.50;;
5684;SDS011;2865;53.114;9.130;2022-08-01T10:34:33;5.20;;;1.83;;
5684;SDS011;2865;53.114;9.130;2022-08-01T10:36:58;5.30;;;1.70;;
5684;SDS011;2865;53.114;9.130;2022-08-01T10:39:24;6.40;;;1.53;;
5684;SDS011;2865;53.114;9.130;2022-08-01T10:41:49;6.33;;;1.63;;
5684;SDS011;2865;53.114;9.130;2022-08-01T10:44:14;6.03;;;1.80;;
5684;SDS011;2865;53.114;9.130;2022-08-01T10:46:42;5.93;;;1.50;;
5684;SDS011;2865;53.114;9.130;2022-08-01T10:49:10;5.90;;;1.80;;
5684;SDS011;2865;53.114;9.130;2022-08-01T10:51:34;5.73;;;1.80;;
5684;SDS011;2865;53.114;9.130;2022-08-01T10:54:02;9.20;;;1.63;;
5684;SDS011;2865;53.114;9.130;2022-08-01T10:56:25;7.20;;;1.70;;
5684;SDS011;2865;53.114;9.130;2022-08-01T10:58:54;5.97;;;1.80;;
5684;SDS011;2865;53.114;9.130;2022-08-01T11:01:18;6.47;;;1.77;;
5684;SDS011;2865;53.114;9.130;2022-08-01T11:03:43;7.33;;;1.80;;
5684;SDS011;2865;53.114;9.130;2022-08-01T11:06:15;8.00;;;2.13;;
5684;SDS011;2865;53.114;9.130;2022-08-01T11:08:42;5.57;;;1.80;;
5684;SDS011;2865;53.114;9.130;2022-08-01T11:11:07;10.43;;;2.00;;
5684;SDS011;2865;53.114;9.130;2022-08-01T11:16:24;3.50;;;1.70;;
5684;SDS011;2865;53.114;9.130;2022-08-01T11:18:49;6.33;;;1.60;;
5684;SDS011;2865;53.114;9.130;2022-08-01T11:21:07;7.17;;;1.40;;
5684;SDS011;2865;53.114;9.130;2022-08-01T11:23:33;11.20;;;2.20;;
5684;SDS011;2865;53.114;9.130;2022-08-01T11:26:06;11.40;;;2.03;;
5684;SDS011;2865;53.114;9.130;2022-08-01T11:28:32;10.57;;;3.33;;
5684;SDS011;2865;53.114;9.130;2022-08-01T11:33:56;13.60;;;2.60;;
5684;SDS011;2865;53.114;9.130;2022-08-01T11:36:22;8.80;;;1.67;;
5684;SDS011;2865;53.114;9.130;2022-08-01T11:38:48;3.23;;;1.40;;
5684;SDS011;2865;53.114;9.130;2022-08-01T11:41:30;5.73;;;1.70;;
5684;SDS011;2865;53.114;9.130;2022-08-01T11:43:58;6.03;;;1.70;;
5684;SDS011;2865;53.114;9.130;2022-08-01T11:49:23;9.07;;;2.10;;
5684;SDS011;2865;53.114;9.130;2022-08-01T11:52:04;4.43;;;2.00;;
5684;SDS011;2865;53.114;9.130;2022-08-01T11:54:35;9.73;;;2.10;;
5684;SDS011;2865;53.114;9.130;2022-08-01T11:57:03;9.83;;;2.30;;
5684;SDS011;2865;53.114;9.130;2022-08-01T11:59:34;5.77;;;2.10;;
5684;SDS011;2865;53.114;9.130;2022-08-01T12:01:54;3.17;;;1.40;;
5684;SDS011;2865;53.114;9.130;2022-08-01T12:04:20;6.80;;;1.93;;
5684;SDS011;2865;53.114;9.130;2022-08-01T12:06:45;7.70;;;1.77;;
5684;SDS011;2865;53.114;9.130;2022-08-01T12:09:15;8.47;;;1.80;;
5684;SDS011;2865;53.114;9.130;2022-08-01T12:11:40;8.60;;;1.90;;
5684;SDS011;2865;53.114;9.130;2022-08-01T12:14:05;13.40;;;1.83;;
5684;SDS011;2865;53.114;9.130;2022-08-01T12:16:30;8.00;;;1.90;;
5684;SDS011;2865;53.114;9.130;2022-08-01T12:18:56;11.80;;;2.53;;
5684;SDS011;2865;53.114;9.130;2022-08-01T12:21:21;8.77;;;1.97;;
5684;SDS011;2865;53.114;9.130;2022-08-01T12:23:59;8.17;;;1.57;;
5684;SDS011;2865;53.114;9.130;2022-08-01T12:26:12;12.23;;;2.10;;
5684;SDS011;2865;53.114;9.130;2022-08-01T12:28:39;3.53;;;1.43;;
5684;SDS011;2865;53.114;9.130;2022-08-01T12:31:03;5.70;;;1.73;;
5684;SDS011;2865;53.114;9.130;2022-08-01T12:33:29;5.67;;;1.60;;
5684;SDS011;2865;53.114;9.130;2022-08-01T12:35:54;5.03;;;1.63;;
5684;SDS011;2865;53.114;9.130;2022-08-01T12:38:20;10.13;;;1.83;;
5684;SDS011;2865;53.114;9.130;2022-08-01T12:40:46;3.63;;;1.10;;
5684;SDS011;2865;53.114;9.130;2022-08-01T12:43:13;3.17;;;1.30;;
5684;SDS011;2865;53.114;9.130;2022-08-01T12:45:39;3.53;;;1.40;;
5684;SDS011;2865;53.114;9.130;2022-08-01T12:48:06;8.33;;;1.63;;
5684;SDS011;2865;53.114;9.130;2022-08-01T12:50:29;5.27;;;1.63;;
5684;SDS011;2865;53.114;9.130;2022-08-01T12:52:54;9.17;;;1.80;;
5684;SDS011;2865;53.114;9.130;2022-08-01T12:55:20;5.00;;;1.43;;
5684;SDS011;2865;53.114;9.130;2022-08-01T12:57:46;5.10;;;1.63;;
5684;SDS011;2865;53.114;9.130;2022-08-01T13:00:19;5.83;;;1.70;;
5684;SDS011;2865;53.114;9.130;2022-08-01T13:02:45;4.13;;;1.60;;
5684;SDS011;2865;53.114;9.130;2022-08-01T13:05:10;2.97;;;1.40;;
5684;SDS011;2865;53.114;9.130;2022-08-01T13:07:43;5.27;;;1.63;;
5684;SDS011;2865;53.114;9.130;2022-08-01T13:10:07;7.27;;;2.03;;
5684;SDS011;2865;53.114;9.130;2022-08-01T13:12:33;6.53;;;1.60;;
5684;SDS011;2865;53.114;9.130;2022-08-01T13:14:58;4.93;;;1.80;;
5684;SDS011;2865;53.114;9.130;2022-08-01T13:17:29;7.07;;;2.97;;
5684;SDS011;2865;53.114;9.130;2022-08-01T13:19:54;6.03;;;2.03;;
5684;SDS011;2865;53.114;9.130;2022-08-01T13:22:19;8.17;;;1.97;;
5684;SDS011;2865;53.114;9.130;2022-08-01T13:24:45;3.67;;;1.40;;
5684;SDS011;2865;53.114;9.130;2022-08-01T13:27:19;5.23;;;1.37;;
5684;SDS011;2865;53.114;9.130;2022-08-01T13:29:36;8.10;;;1.63;;
5684;SDS011;2865;53.114;9.130;2022-08-01T13:32:11;4.67;;;1.63;;
5684;SDS011;2865;53.114;9.130;2022-08-01T13:34:33;9.50;;;1.90;;
5684;SDS011;2865;53.114;9.130;2022-08-01T13:36:59;5.87;;;1.37;;
5684;SDS011;2865;53.114;9.130;2022-08-01T13:39:24;7.63;;;1.43;;
5684;SDS011;2865;53.114;9.130;2022-08-01T13:41:55;5.97;;;1.40;;
5684;SDS011;2865;53.114;9.130;2022-08-01T13:44:20;9.80;;;1.77;;
5684;SDS011;2865;53.114;9.130;2022-08-01T13:46:46;4.40;;;2.00;;
5684;SDS011;2865;53.114;9.130;2022-08-01T13:49:13;6.17;;;1.80;;
5684;SDS011;2865;53.114;9.130;2022-08-01T13:51:38;6.83;;;1.47;;
5684;SDS011;2865;53.114;9.130;2022-08-01T13:54:04;8.17;;;1.27;;
5684;SDS011;2865;53.114;9.130;2022-08-01T13:56:29;6.73;;;1.50;;
5684;SDS011;2865;53.114;9.130;2022-08-01T13:58:55;5.93;;;1.40;;
5684;SDS011;2865;53.114;9.130;2022-08-01T14:01:20;5.37;;;2.00;;
5684;SDS011;2865;53.114;9.130;2022-08-01T14:03:45;5.77;;;1.67;;
5684;SDS011;2865;53.114;9.130;2022-08-01T14:06:11;5.97;;;1.70;;
5684;SDS011;2865;53.114;9.130;2022-08-01T14:08:36;9.90;;;1.60;;
5684;SDS011;2865;53.114;9.130;2022-08-01T14:11:01;6.37;;;2.07;;
5684;SDS011;2865;53.114;9.130;2022-08-01T14:13:27;5.23;;;1.47;;
5684;SDS011;2865;53.114;9.130;2022-08-01T14:15:52;6.73;;;2.10;;
5684;SDS011;2865;53.114;9.130;2022-08-01T14:18:19;7.27;;;1.70;;
5684;SDS011;2865;53.114;9.130;2022-08-01T14:20:44;6.00;;;1.50;;
5684;SDS011;2865;53.114;9.130;2022-08-01T14:23:09;4.20;;;1.50;;
5684;SDS011;2865;53.114;9.130;2022-08-01T14:25:36;4.77;;;1.17;;
5684;SDS011;2865;53.114;9.130;2022-08-01T14:28:02;9.67;;;2.27;;
5684;SDS011;2865;53.114;9.130;2022-08-01T14:30:27;2.77;;;1.57;;
5684;SDS011;2865;53.114;9.130;2022-08-01T14:32:53;8.70;;;2.03;;
5684;SDS011;2865;53.114;9.130;2022-08-01T14:35:18;6.20;;;2.13;;
5684;SDS011;2865;53.114;9.130;2022-08-01T14:37:44;5.20;;;1.70;;
5684;SDS011;2865;53.114;9.130;2022-08-01T14:40:09;7.03;;;1.80;;
5684;SDS011;2865;53.114;9.130;2022-08-01T14:42:35;5.80;;;2.27;;
5684;SDS011;2865;53.114;9.130;2022-08-01T14:45:00;7.70;;;2.13;;
5684;SDS011;2865;53.114;9.130;2022-08-01T14:47:25;5.93;;;1.50;;
5684;SDS011;2865;53.114;9.130;2022-08-01T14:49:50;5.83;;;1.80;;
5684;SDS011;2865;53.114;9.130;2022-08-01T14:52:16;8.97;;;1.80;;
5684;SDS011;2865;53.114;9.130;2022-08-01T14:54:41;4.10;;;1.77;;
5684;SDS011;2865;53.114;9.130;2022-08-01T14:57:07;6.23;;;1.43;;
5684;SDS011;2865;53.114;9.130;2022-08-01T14:59:32;6.73;;;1.50;;
5684;SDS011;2865;53.114;9.130;2022-08-01T15:01:58;8.13;;;2.30;;
5684;SDS011;2865;53.114;9.130;2022-08-01T15:04:23;8.20;;;1.70;;
5684;SDS011;2865;53.114;9.130;2022-08-01T15:06:48;3.87;;;1.37;;
5684;SDS011;2865;53.114;9.130;2022-08-01T15:09:14;7.10;;;2.43;;
5684;SDS011;2865;53.114;9.130;2022-08-01T15:11:39;5.43;;;1.47;;
5684;SDS011;2865;53.114;9.130;2022-08-01T15:14:05;7.47;;;2.33;;
5684;SDS011;2865;53.114;9.130;2022-08-01T15:16:36;3.23;;;1.50;;
5684;SDS011;2865;53.114;9.130;2022-08-01T15:19:02;5.50;;;2.10;;
5684;SDS011;2865;53.114;9.130;2022-08-01T15:21:27;8.50;;;1.97;;